sensor_id;sensor_type;location;lat;lon;timestamp;P1;durP1;ratioP1;P2;durP2;ratioP2
18146;SDS011;9199;48.832;9.182;2023-03-31T00:01:00;5.75;;;1.33;;
18146;SDS011;9199;48.832;9.182;2023-03-31T00:03:28;6.00;;;1.40;;
18146;SDS011;9199;48.832;9.182;2023-03-31T00:05:58;4.78;;;1.60;;
18146;SDS011;9199;48.832;9.182;2023-03-31T00:08:26;5.47;;;1.40;;
18146;SDS011;9199;48.832;9.182;2023-03-31T00:10:59;4.90;;;1.10;;
18146;SDS011;9199;48.832;9.182;2023-03-31T00:13:26;4.45;;;1.20;;
18146;SDS011;9199;48.832;9.182;2023-03-31T00:15:56;6.03;;;1.33;;
18146;SDS011;9199;48.832;9.182;2023-03-31T00:18:24;5.18;;;1.42;;
18146;SDS011;9199;48.832;9.182;2023-03-31T00:20:51;8.60;;;1.47;;
18146;SDS011;9199;48.832;9.182;2023-03-31T00:23:18;6.20;;;1.50;;
18146;SDS011;9199;48.832;9.182;2023-03-31T00:25:52;6.97;;;1.70;;
18146;SDS011;9199;48.832;9.182;2023-03-31T00:28:19;5.45;;;1.42;;
18146;SDS011;9199;48.832;9.182;2023-03-31T00:30:46;5.88;;;1.50;;
18146;SDS011;9199;48.832;9.182;2023-03-31T00:33:14;4.23;;;1.33;;
18146;SDS011;9199;48.832;9.182;2023-03-31T00:35:41;5.28;;;1.30;;
18146;SDS011;9199;48.832;9.182;2023-03-31T00:38:10;5.90;;;1.70;;
18146;SDS011;9199;48.832;9.182;2023-03-31T00:40:42;7.05;;;1.65;;
18146;SDS011;9199;48.832;9.182;2023-03-31T00:43:15;6.55;;;1.60;;
18146;SDS011;9199;48.832;9.182;2023-03-31T00:45:51;6.03;;;1.67;;
18146;SDS011;9199;48.832;9.182;2023-03-31T00:48:20;6.97;;;1.50;;
18146;SDS011;9199;48.832;9.182;2023-03-31T00:50:48;7.93;;;1.60;;
18146;SDS011;9199;48.832;9.182;2023-03-31T00:53:19;7.53;;;1.70;;
18146;SDS011;9199;48.832;9.182;2023-03-31T00:55:50;5.03;;;1.40;;
18146;SDS011;9199;48.832;9.182;2023-03-31T00:58:19;6.07;;;1.70;;
18146;SDS011;9199;48.832;9.182;2023-03-31T01:00:52;6.32;;;1.77;;
18146;SDS011;9199;48.832;9.182;2023-03-31T01:03:22;6.15;;;1.40;;
18146;SDS011;9199;48.832;9.182;2023-03-31T01:05:49;7.18;;;1.70;;
18146;SDS011;9199;48.832;9.182;2023-03-31T01:08:19;9.32;;;1.70;;
18146;SDS011;9199;48.832;9.182;2023-03-31T01:10:50;6.30;;;1.50;;
18146;SDS011;9199;48.832;9.182;2023-03-31T01:13:19;6.68;;;1.33;;
18146;SDS011;9199;48.832;9.182;2023-03-31T01:15:46;6.80;;;1.60;;
18146;SDS011;9199;48.832;9.182;2023-03-31T01:18:13;10.07;;;1.63;;
18146;SDS011;9199;48.832;9.182;2023-03-31T01:20:48;6.55;;;1.50;;
18146;SDS011;9199;48.832;9.182;2023-03-31T01:23:39;5.73;;;1.70;;
18146;SDS011;9199;48.832;9.182;2023-03-31T01:26:33;7.57;;;1.50;;
18146;SDS011;9199;48.832;9.182;2023-03-31T01:32:42;7.20;;;1.60;;
18146;SDS011;9199;48.832;9.182;2023-03-31T01:35:38;8.40;;;1.45;;
18146;SDS011;9199;48.832;9.182;2023-03-31T01:38:47;5.80;;;1.70;;
18146;SDS011;9199;48.832;9.182;2023-03-31T01:41:38;6.57;;;1.58;;
18146;SDS011;9199;48.832;9.182;2023-03-31T01:44:16;9.18;;;1.83;;
18146;SDS011;9199;48.832;9.182;2023-03-31T01:46:53;6.10;;;1.52;;
18146;SDS011;9199;48.832;9.182;2023-03-31T01:49:24;8.70;;;1.55;;
18146;SDS011;9199;48.832;9.182;2023-03-31T01:51:59;7.03;;;1.40;;
18146;SDS011;9199;48.832;9.182;2023-03-31T01:54:31;6.75;;;1.55;;
18146;SDS011;9199;48.832;9.182;2023-03-31T01:57:05;6.30;;;1.20;;
18146;SDS011;9199;48.832;9.182;2023-03-31T01:59:39;8.57;;;1.25;;
18146;SDS011;9199;48.832;9.182;2023-03-31T02:02:10;6.13;;;1.10;;
18146;SDS011;9199;48.832;9.182;2023-03-31T02:04:45;6.10;;;1.47;;
18146;SDS011;9199;48.832;9.182;2023-03-31T02:07:15;6.50;;;1.13;;
18146;SDS011;9199;48.832;9.182;2023-03-31T02:09:46;5.38;;;1.13;;
18146;SDS011;9199;48.832;9.182;2023-03-31T02:12:17;6.22;;;1.30;;
18146;SDS011;9199;48.832;9.182;2023-03-31T02:14:46;6.25;;;1.55;;
18146;SDS011;9199;48.832;9.182;2023-03-31T02:17:16;5.40;;;1.07;;
18146;SDS011;9199;48.832;9.182;2023-03-31T02:19:48;4.78;;;0.90;;
18146;SDS011;9199;48.832;9.182;2023-03-31T02:22:18;6.80;;;1.33;;
18146;SDS011;9199;48.832;9.182;2023-03-31T02:24:47;5.13;;;1.20;;
18146;SDS011;9199;48.832;9.182;2023-03-31T02:27:20;6.85;;;1.40;;
18146;SDS011;9199;48.832;9.182;2023-03-31T02:29:49;6.33;;;1.30;;
18146;SDS011;9199;48.832;9.182;2023-03-31T02:32:19;6.38;;;1.15;;
18146;SDS011;9199;48.832;9.182;2023-03-31T02:34:47;5.75;;;1.40;;
18146;SDS011;9199;48.832;9.182;2023-03-31T02:37:14;7.82;;;1.35;;
18146;SDS011;9199;48.832;9.182;2023-03-31T02:39:42;7.03;;;1.90;;
18146;SDS011;9199;48.832;9.182;2023-03-31T02:42:11;7.00;;;1.40;;
18146;SDS011;9199;48.832;9.182;2023-03-31T02:44:39;7.32;;;1.92;;
18146;SDS011;9199;48.832;9.182;2023-03-31T02:47:06;4.95;;;1.55;;
18146;SDS011;9199;48.832;9.182;2023-03-31T02:49:34;6.53;;;1.38;;
18146;SDS011;9199;48.832;9.182;2023-03-31T02:52:16;7.20;;;1.70;;
18146;SDS011;9199;48.832;9.182;2023-03-31T02:55:00;7.50;;;1.70;;
18146;SDS011;9199;48.832;9.182;2023-03-31T02:57:47;7.28;;;1.60;;
18146;SDS011;9199;48.832;9.182;2023-03-31T03:00:43;5.95;;;1.50;;
18146;SDS011;9199;48.832;9.182;2023-03-31T03:03:24;7.30;;;1.60;;
18146;SDS011;9199;48.832;9.182;2023-03-31T03:06:00;7.35;;;1.60;;
18146;SDS011;9199;48.832;9.182;2023-03-31T03:08:41;7.67;;;1.80;;
18146;SDS011;9199;48.832;9.182;2023-03-31T03:11:21;6.60;;;2.00;;
18146;SDS011;9199;48.832;9.182;2023-03-31T03:13:54;6.53;;;1.70;;
18146;SDS011;9199;48.832;9.182;2023-03-31T03:16:31;6.20;;;1.70;;
18146;SDS011;9199;48.832;9.182;2023-03-31T03:19:02;6.20;;;1.90;;
18146;SDS011;9199;48.832;9.182;2023-03-31T03:21:31;6.23;;;1.77;;
18146;SDS011;9199;48.832;9.182;2023-03-31T03:23:58;7.47;;;1.83;;
18146;SDS011;9199;48.832;9.182;2023-03-31T03:26:26;7.28;;;1.58;;
18146;SDS011;9199;48.832;9.182;2023-03-31T03:28:53;6.38;;;1.95;;
18146;SDS011;9199;48.832;9.182;2023-03-31T03:31:20;6.40;;;1.60;;
18146;SDS011;9199;48.832;9.182;2023-03-31T03:33:49;6.30;;;1.83;;
18146;SDS011;9199;48.832;9.182;2023-03-31T03:36:16;6.43;;;2.05;;
18146;SDS011;9199;48.832;9.182;2023-03-31T03:38:43;8.93;;;2.00;;
18146;SDS011;9199;48.832;9.182;2023-03-31T03:41:10;5.45;;;1.80;;
18146;SDS011;9199;48.832;9.182;2023-03-31T03:43:36;7.78;;;2.10;;
18146;SDS011;9199;48.832;9.182;2023-03-31T03:46:03;5.17;;;2.07;;
18146;SDS011;9199;48.832;9.182;2023-03-31T03:48:30;6.57;;;1.90;;
18146;SDS011;9199;48.832;9.182;2023-03-31T03:50:59;6.70;;;1.90;;
18146;SDS011;9199;48.832;9.182;2023-03-31T03:53:26;7.38;;;2.20;;
18146;SDS011;9199;48.832;9.182;2023-03-31T03:55:53;6.82;;;1.92;;
18146;SDS011;9199;48.832;9.182;2023-03-31T03:58:20;5.67;;;1.93;;
18146;SDS011;9199;48.832;9.182;2023-03-31T04:00:46;7.25;;;2.05;;
18146;SDS011;9199;48.832;9.182;2023-03-31T04:03:13;4.53;;;1.60;;
18146;SDS011;9199;48.832;9.182;2023-03-31T04:05:40;7.05;;;1.90;;
18146;SDS011;9199;48.832;9.182;2023-03-31T04:08:08;7.30;;;2.58;;
18146;SDS011;9199;48.832;9.182;2023-03-31T04:10:35;5.80;;;2.23;;
18146;SDS011;9199;48.832;9.182;2023-03-31T04:13:02;6.45;;;2.08;;
18146;SDS011;9199;48.832;9.182;2023-03-31T04:15:28;7.93;;;2.35;;
18146;SDS011;9199;48.832;9.182;2023-03-31T04:17:55;7.03;;;2.15;;
18146;SDS011;9199;48.832;9.182;2023-03-31T04:20:22;6.65;;;2.10;;
18146;SDS011;9199;48.832;9.182;2023-03-31T04:22:51;5.80;;;2.30;;
18146;SDS011;9199;48.832;9.182;2023-03-31T04:25:20;6.63;;;2.08;;
18146;SDS011;9199;48.832;9.182;2023-03-31T04:27:47;6.43;;;2.13;;
18146;SDS011;9199;48.832;9.182;2023-03-31T04:30:18;8.88;;;2.42;;
18146;SDS011;9199;48.832;9.182;2023-03-31T04:32:48;5.50;;;2.10;;
18146;SDS011;9199;48.832;9.182;2023-03-31T04:35:15;6.63;;;2.47;;
18146;SDS011;9199;48.832;9.182;2023-03-31T04:37:45;6.03;;;2.22;;
18146;SDS011;9199;48.832;9.182;2023-03-31T04:40:12;7.60;;;2.28;;
18146;SDS011;9199;48.832;9.182;2023-03-31T04:42:41;6.97;;;2.08;;
18146;SDS011;9199;48.832;9.182;2023-03-31T04:45:08;6.55;;;2.03;;
18146;SDS011;9199;48.832;9.182;2023-03-31T04:47:35;8.00;;;2.40;;
18146;SDS011;9199;48.832;9.182;2023-03-31T04:50:02;7.35;;;2.30;;
18146;SDS011;9199;48.832;9.182;2023-03-31T04:52:29;6.15;;;2.40;;
18146;SDS011;9199;48.832;9.182;2023-03-31T04:54:56;6.68;;;2.35;;
18146;SDS011;9199;48.832;9.182;2023-03-31T04:57:22;7.35;;;2.50;;
18146;SDS011;9199;48.832;9.182;2023-03-31T04:59:50;5.50;;;2.23;;
18146;SDS011;9199;48.832;9.182;2023-03-31T05:02:18;8.70;;;2.75;;
18146;SDS011;9199;48.832;9.182;2023-03-31T05:04:47;7.50;;;2.55;;
18146;SDS011;9199;48.832;9.182;2023-03-31T05:07:14;10.18;;;2.83;;
18146;SDS011;9199;48.832;9.182;2023-03-31T05:09:41;5.80;;;2.35;;
18146;SDS011;9199;48.832;9.182;2023-03-31T05:12:08;9.37;;;2.90;;
18146;SDS011;9199;48.832;9.182;2023-03-31T05:14:35;7.38;;;2.40;;
18146;SDS011;9199;48.832;9.182;2023-03-31T05:17:03;6.22;;;2.60;;
18146;SDS011;9199;48.832;9.182;2023-03-31T05:19:30;7.43;;;3.00;;
18146;SDS011;9199;48.832;9.182;2023-03-31T05:21:56;9.32;;;2.78;;
18146;SDS011;9199;48.832;9.182;2023-03-31T05:24:23;12.80;;;2.97;;
18146;SDS011;9199;48.832;9.182;2023-03-31T05:26:52;8.80;;;3.08;;
18146;SDS011;9199;48.832;9.182;2023-03-31T05:29:20;9.93;;;3.35;;
18146;SDS011;9199;48.832;9.182;2023-03-31T05:31:47;9.70;;;3.25;;
18146;SDS011;9199;48.832;9.182;2023-03-31T05:34:15;9.38;;;3.50;;
18146;SDS011;9199;48.832;9.182;2023-03-31T05:36:41;11.33;;;3.60;;
18146;SDS011;9199;48.832;9.182;2023-03-31T05:39:08;12.60;;;3.58;;
18146;SDS011;9199;48.832;9.182;2023-03-31T05:41:35;7.63;;;3.88;;
18146;SDS011;9199;48.832;9.182;2023-03-31T05:44:01;8.40;;;3.13;;
18146;SDS011;9199;48.832;9.182;2023-03-31T05:46:28;10.02;;;3.47;;
18146;SDS011;9199;48.832;9.182;2023-03-31T05:48:55;9.20;;;3.60;;
18146;SDS011;9199;48.832;9.182;2023-03-31T05:51:24;8.80;;;3.33;;
18146;SDS011;9199;48.832;9.182;2023-03-31T05:53:51;10.65;;;3.67;;
18146;SDS011;9199;48.832;9.182;2023-03-31T05:56:17;10.70;;;3.85;;
18146;SDS011;9199;48.832;9.182;2023-03-31T05:58:44;10.95;;;3.85;;
18146;SDS011;9199;48.832;9.182;2023-03-31T06:01:11;9.70;;;3.80;;
18146;SDS011;9199;48.832;9.182;2023-03-31T06:03:44;12.68;;;4.38;;
18146;SDS011;9199;48.832;9.182;2023-03-31T06:06:11;8.27;;;4.40;;
18146;SDS011;9199;48.832;9.182;2023-03-31T06:08:40;10.88;;;4.10;;
18146;SDS011;9199;48.832;9.182;2023-03-31T06:11:07;11.32;;;4.05;;
18146;SDS011;9199;48.832;9.182;2023-03-31T06:13:36;8.87;;;4.00;;
18146;SDS011;9199;48.832;9.182;2023-03-31T06:16:03;11.82;;;4.15;;
18146;SDS011;9199;48.832;9.182;2023-03-31T06:18:31;11.02;;;4.13;;
18146;SDS011;9199;48.832;9.182;2023-03-31T06:20:59;11.02;;;4.85;;
18146;SDS011;9199;48.832;9.182;2023-03-31T06:23:26;11.77;;;4.60;;
18146;SDS011;9199;48.832;9.182;2023-03-31T06:25:58;8.47;;;4.70;;
18146;SDS011;9199;48.832;9.182;2023-03-31T06:28:26;8.32;;;4.10;;
18146;SDS011;9199;48.832;9.182;2023-03-31T06:30:58;10.57;;;4.40;;
18146;SDS011;9199;48.832;9.182;2023-03-31T06:33:25;13.27;;;4.28;;
18146;SDS011;9199;48.832;9.182;2023-03-31T06:35:53;13.05;;;4.70;;
18146;SDS011;9199;48.832;9.182;2023-03-31T06:38:21;11.90;;;5.00;;
18146;SDS011;9199;48.832;9.182;2023-03-31T06:40:48;11.70;;;5.03;;
18146;SDS011;9199;48.832;9.182;2023-03-31T06:43:16;11.23;;;4.85;;
18146;SDS011;9199;48.832;9.182;2023-03-31T06:45:43;14.30;;;4.90;;
18146;SDS011;9199;48.832;9.182;2023-03-31T06:48:09;11.35;;;4.88;;
18146;SDS011;9199;48.832;9.182;2023-03-31T06:50:36;9.07;;;4.63;;
18146;SDS011;9199;48.832;9.182;2023-03-31T06:53:03;13.20;;;4.78;;
18146;SDS011;9199;48.832;9.182;2023-03-31T06:55:30;14.73;;;4.85;;
18146;SDS011;9199;48.832;9.182;2023-03-31T06:57:57;14.82;;;4.70;;
18146;SDS011;9199;48.832;9.182;2023-03-31T07:00:26;12.80;;;5.28;;
18146;SDS011;9199;48.832;9.182;2023-03-31T07:02:52;15.57;;;5.07;;
18146;SDS011;9199;48.832;9.182;2023-03-31T07:05:20;15.63;;;5.68;;
18146;SDS011;9199;48.832;9.182;2023-03-31T07:07:50;12.23;;;4.78;;
18146;SDS011;9199;48.832;9.182;2023-03-31T07:10:17;13.82;;;4.90;;
18146;SDS011;9199;48.832;9.182;2023-03-31T07:12:44;13.15;;;5.55;;
18146;SDS011;9199;48.832;9.182;2023-03-31T07:15:10;13.70;;;5.20;;
18146;SDS011;9199;48.832;9.182;2023-03-31T07:17:39;13.00;;;4.70;;
18146;SDS011;9199;48.832;9.182;2023-03-31T07:20:06;11.90;;;4.63;;
18146;SDS011;9199;48.832;9.182;2023-03-31T07:22:36;9.30;;;3.80;;
18146;SDS011;9199;48.832;9.182;2023-03-31T07:25:05;10.30;;;4.65;;
18146;SDS011;9199;48.832;9.182;2023-03-31T07:27:32;12.27;;;4.00;;
18146;SDS011;9199;48.832;9.182;2023-03-31T07:29:59;7.72;;;3.70;;
18146;SDS011;9199;48.832;9.182;2023-03-31T07:32:26;8.52;;;3.70;;
18146;SDS011;9199;48.832;9.182;2023-03-31T07:34:54;9.70;;;3.30;;
18146;SDS011;9199;48.832;9.182;2023-03-31T07:37:20;8.80;;;3.78;;
18146;SDS011;9199;48.832;9.182;2023-03-31T07:39:47;10.07;;;3.00;;
18146;SDS011;9199;48.832;9.182;2023-03-31T07:42:13;5.93;;;2.38;;
18146;SDS011;9199;48.832;9.182;2023-03-31T07:44:40;6.32;;;2.60;;
18146;SDS011;9199;48.832;9.182;2023-03-31T07:47:07;11.18;;;2.65;;
18146;SDS011;9199;48.832;9.182;2023-03-31T07:49:34;5.00;;;2.00;;
18146;SDS011;9199;48.832;9.182;2023-03-31T07:52:02;4.73;;;1.83;;
18146;SDS011;9199;48.832;9.182;2023-03-31T07:54:29;5.90;;;1.98;;
18146;SDS011;9199;48.832;9.182;2023-03-31T07:56:55;5.13;;;1.77;;
18146;SDS011;9199;48.832;9.182;2023-03-31T07:59:25;5.53;;;1.75;;
18146;SDS011;9199;48.832;9.182;2023-03-31T08:01:52;4.20;;;1.73;;
18146;SDS011;9199;48.832;9.182;2023-03-31T08:04:19;3.97;;;1.40;;
18146;SDS011;9199;48.832;9.182;2023-03-31T08:06:45;5.30;;;1.60;;
18146;SDS011;9199;48.832;9.182;2023-03-31T08:09:14;3.72;;;1.35;;
18146;SDS011;9199;48.832;9.182;2023-03-31T08:11:41;3.05;;;1.10;;
18146;SDS011;9199;48.832;9.182;2023-03-31T08:14:08;4.65;;;1.40;;
18146;SDS011;9199;48.832;9.182;2023-03-31T08:16:35;3.93;;;0.93;;
18146;SDS011;9199;48.832;9.182;2023-03-31T08:19:01;3.38;;;1.20;;
18146;SDS011;9199;48.832;9.182;2023-03-31T08:21:28;3.35;;;1.10;;
18146;SDS011;9199;48.832;9.182;2023-03-31T08:23:56;3.45;;;1.70;;
18146;SDS011;9199;48.832;9.182;2023-03-31T08:26:24;3.20;;;0.98;;
18146;SDS011;9199;48.832;9.182;2023-03-31T08:28:51;3.60;;;1.10;;
18146;SDS011;9199;48.832;9.182;2023-03-31T08:31:19;2.70;;;0.98;;
18146;SDS011;9199;48.832;9.182;2023-03-31T08:33:47;3.42;;;1.10;;
18146;SDS011;9199;48.832;9.182;2023-03-31T08:36:14;3.10;;;1.00;;
18146;SDS011;9199;48.832;9.182;2023-03-31T08:38:41;3.45;;;0.80;;
18146;SDS011;9199;48.832;9.182;2023-03-31T08:41:13;3.40;;;1.00;;
18146;SDS011;9199;48.832;9.182;2023-03-31T08:43:53;3.97;;;1.15;;
18146;SDS011;9199;48.832;9.182;2023-03-31T08:46:21;2.72;;;0.88;;
18146;SDS011;9199;48.832;9.182;2023-03-31T08:48:50;4.40;;;1.00;;
18146;SDS011;9199;48.832;9.182;2023-03-31T08:51:20;3.92;;;0.80;;
18146;SDS011;9199;48.832;9.182;2023-03-31T08:53:54;4.13;;;1.07;;
18146;SDS011;9199;48.832;9.182;2023-03-31T08:56:25;3.50;;;1.05;;
18146;SDS011;9199;48.832;9.182;2023-03-31T08:58:54;2.78;;;0.90;;
18146;SDS011;9199;48.832;9.182;2023-03-31T09:01:28;4.35;;;1.00;;
18146;SDS011;9199;48.832;9.182;2023-03-31T09:04:15;4.82;;;1.08;;
18146;SDS011;9199;48.832;9.182;2023-03-31T09:06:49;4.10;;;1.10;;
18146;SDS011;9199;48.832;9.182;2023-03-31T09:09:23;4.78;;;1.30;;
18146;SDS011;9199;48.832;9.182;2023-03-31T09:12:04;2.70;;;0.90;;
18146;SDS011;9199;48.832;9.182;2023-03-31T09:14:37;6.65;;;1.30;;
18146;SDS011;9199;48.832;9.182;2023-03-31T09:17:11;5.55;;;1.20;;
18146;SDS011;9199;48.832;9.182;2023-03-31T09:19:43;5.33;;;1.20;;
18146;SDS011;9199;48.832;9.182;2023-03-31T09:22:15;4.97;;;1.02;;
18146;SDS011;9199;48.832;9.182;2023-03-31T09:24:46;4.55;;;0.98;;
18146;SDS011;9199;48.832;9.182;2023-03-31T09:27:19;2.50;;;0.80;;
18146;SDS011;9199;48.832;9.182;2023-03-31T09:29:50;4.10;;;0.80;;
18146;SDS011;9199;48.832;9.182;2023-03-31T09:32:21;3.33;;;0.90;;
18146;SDS011;9199;48.832;9.182;2023-03-31T09:34:51;3.88;;;0.90;;
18146;SDS011;9199;48.832;9.182;2023-03-31T09:37:21;3.95;;;0.80;;
18146;SDS011;9199;48.832;9.182;2023-03-31T09:39:50;4.53;;;1.08;;
18146;SDS011;9199;48.832;9.182;2023-03-31T09:42:17;3.38;;;0.80;;
18146;SDS011;9199;48.832;9.182;2023-03-31T09:44:44;5.47;;;1.10;;
18146;SDS011;9199;48.832;9.182;2023-03-31T09:47:16;4.75;;;1.17;;
18146;SDS011;9199;48.832;9.182;2023-03-31T09:49:51;6.28;;;1.40;;
18146;SDS011;9199;48.832;9.182;2023-03-31T09:52:19;4.72;;;0.90;;
18146;SDS011;9199;48.832;9.182;2023-03-31T09:54:53;5.95;;;1.20;;
18146;SDS011;9199;48.832;9.182;2023-03-31T09:57:24;5.63;;;1.20;;
18146;SDS011;9199;48.832;9.182;2023-03-31T09:59:52;5.10;;;1.10;;
18146;SDS011;9199;48.832;9.182;2023-03-31T10:02:35;7.95;;;1.58;;
18146;SDS011;9199;48.832;9.182;2023-03-31T10:05:04;5.38;;;1.13;;
18146;SDS011;9199;48.832;9.182;2023-03-31T10:07:42;6.28;;;1.20;;
18146;SDS011;9199;48.832;9.182;2023-03-31T10:10:09;8.27;;;1.23;;
18146;SDS011;9199;48.832;9.182;2023-03-31T10:12:54;4.63;;;1.10;;
18146;SDS011;9199;48.832;9.182;2023-03-31T10:15:22;5.32;;;1.08;;
18146;SDS011;9199;48.832;9.182;2023-03-31T10:17:53;9.73;;;1.20;;
18146;SDS011;9199;48.832;9.182;2023-03-31T10:20:30;4.90;;;1.30;;
18146;SDS011;9199;48.832;9.182;2023-03-31T10:23:01;4.87;;;1.27;;
18146;SDS011;9199;48.832;9.182;2023-03-31T10:25:29;7.97;;;1.60;;
18146;SDS011;9199;48.832;9.182;2023-03-31T10:27:59;6.43;;;1.20;;
18146;SDS011;9199;48.832;9.182;2023-03-31T10:30:28;4.22;;;1.35;;
18146;SDS011;9199;48.832;9.182;2023-03-31T10:33:01;5.20;;;1.10;;
18146;SDS011;9199;48.832;9.182;2023-03-31T10:35:32;4.93;;;1.13;;
18146;SDS011;9199;48.832;9.182;2023-03-31T10:38:01;4.97;;;1.40;;
18146;SDS011;9199;48.832;9.182;2023-03-31T10:40:31;6.45;;;1.20;;
18146;SDS011;9199;48.832;9.182;2023-03-31T10:43:03;5.10;;;1.40;;
18146;SDS011;9199;48.832;9.182;2023-03-31T10:45:40;4.63;;;1.00;;
18146;SDS011;9199;48.832;9.182;2023-03-31T10:48:17;5.20;;;1.20;;
18146;SDS011;9199;48.832;9.182;2023-03-31T10:50:48;5.85;;;1.10;;
18146;SDS011;9199;48.832;9.182;2023-03-31T10:53:16;6.13;;;1.00;;
18146;SDS011;9199;48.832;9.182;2023-03-31T10:55:46;5.55;;;1.27;;
18146;SDS011;9199;48.832;9.182;2023-03-31T10:58:24;7.20;;;1.20;;
18146;SDS011;9199;48.832;9.182;2023-03-31T11:01:03;5.40;;;1.30;;
18146;SDS011;9199;48.832;9.182;2023-03-31T11:03:44;6.82;;;1.20;;
18146;SDS011;9199;48.832;9.182;2023-03-31T11:06:36;5.18;;;1.20;;
18146;SDS011;9199;48.832;9.182;2023-03-31T11:09:16;4.93;;;1.00;;
18146;SDS011;9199;48.832;9.182;2023-03-31T11:11:57;5.82;;;1.40;;
18146;SDS011;9199;48.832;9.182;2023-03-31T11:14:32;6.33;;;1.13;;
18146;SDS011;9199;48.832;9.182;2023-03-31T11:17:07;5.90;;;1.33;;
18146;SDS011;9199;48.832;9.182;2023-03-31T11:19:49;4.68;;;0.90;;
18146;SDS011;9199;48.832;9.182;2023-03-31T11:22:25;4.45;;;1.00;;
18146;SDS011;9199;48.832;9.182;2023-03-31T11:25:11;6.88;;;0.73;;
18146;SDS011;9199;48.832;9.182;2023-03-31T11:27:54;2.77;;;0.70;;
18146;SDS011;9199;48.832;9.182;2023-03-31T11:30:42;2.53;;;0.70;;
18146;SDS011;9199;48.832;9.182;2023-03-31T11:33:18;4.45;;;0.80;;
18146;SDS011;9199;48.832;9.182;2023-03-31T11:36:00;3.03;;;0.73;;
18146;SDS011;9199;48.832;9.182;2023-03-31T11:38:39;2.35;;;0.50;;
18146;SDS011;9199;48.832;9.182;2023-03-31T11:41:22;3.50;;;0.53;;
18146;SDS011;9199;48.832;9.182;2023-03-31T11:43:55;2.83;;;0.50;;
18146;SDS011;9199;48.832;9.182;2023-03-31T11:46:30;2.00;;;0.65;;
18146;SDS011;9199;48.832;9.182;2023-03-31T11:49:01;2.95;;;0.70;;
18146;SDS011;9199;48.832;9.182;2023-03-31T11:51:34;2.10;;;0.52;;
18146;SDS011;9199;48.832;9.182;2023-03-31T11:54:08;2.47;;;0.80;;
18146;SDS011;9199;48.832;9.182;2023-03-31T11:56:43;3.17;;;0.80;;
18146;SDS011;9199;48.832;9.182;2023-03-31T11:59:10;2.58;;;0.70;;
18146;SDS011;9199;48.832;9.182;2023-03-31T12:01:41;4.13;;;0.85;;
18146;SDS011;9199;48.832;9.182;2023-03-31T12:04:17;1.92;;;0.50;;
18146;SDS011;9199;48.832;9.182;2023-03-31T12:06:51;2.00;;;0.50;;
18146;SDS011;9199;48.832;9.182;2023-03-31T12:09:28;1.73;;;0.70;;
18146;SDS011;9199;48.832;9.182;2023-03-31T12:12:01;2.60;;;0.68;;
18146;SDS011;9199;48.832;9.182;2023-03-31T12:14:33;1.23;;;0.40;;
18146;SDS011;9199;48.832;9.182;2023-03-31T12:17:03;1.88;;;0.45;;
18146;SDS011;9199;48.832;9.182;2023-03-31T12:19:36;2.23;;;0.60;;
18146;SDS011;9199;48.832;9.182;2023-03-31T12:22:13;0.90;;;0.40;;
18146;SDS011;9199;48.832;9.182;2023-03-31T12:24:44;1.05;;;0.40;;
18146;SDS011;9199;48.832;9.182;2023-03-31T12:27:12;2.97;;;0.60;;
18146;SDS011;9199;48.832;9.182;2023-03-31T12:29:44;2.92;;;0.47;;
18146;SDS011;9199;48.832;9.182;2023-03-31T12:32:16;3.30;;;0.50;;
18146;SDS011;9199;48.832;9.182;2023-03-31T12:34:47;1.77;;;0.40;;
18146;SDS011;9199;48.832;9.182;2023-03-31T12:37:34;2.20;;;0.52;;
18146;SDS011;9199;48.832;9.182;2023-03-31T12:40:21;3.28;;;0.60;;
18146;SDS011;9199;48.832;9.182;2023-03-31T12:43:04;3.22;;;0.50;;
18146;SDS011;9199;48.832;9.182;2023-03-31T12:45:42;2.20;;;0.60;;
18146;SDS011;9199;48.832;9.182;2023-03-31T12:48:34;3.33;;;0.80;;
18146;SDS011;9199;48.832;9.182;2023-03-31T12:51:18;3.30;;;0.60;;
18146;SDS011;9199;48.832;9.182;2023-03-31T12:53:59;3.85;;;0.90;;
18146;SDS011;9199;48.832;9.182;2023-03-31T12:59:38;3.20;;;0.73;;
18146;SDS011;9199;48.832;9.182;2023-03-31T13:02:17;3.65;;;1.05;;
18146;SDS011;9199;48.832;9.182;2023-03-31T13:04:49;4.53;;;0.90;;
18146;SDS011;9199;48.832;9.182;2023-03-31T13:07:36;3.50;;;0.90;;
18146;SDS011;9199;48.832;9.182;2023-03-31T13:12:58;5.27;;;1.10;;
18146;SDS011;9199;48.832;9.182;2023-03-31T13:15:28;5.75;;;1.30;;
18146;SDS011;9199;48.832;9.182;2023-03-31T13:17:56;6.38;;;1.05;;
18146;SDS011;9199;48.832;9.182;2023-03-31T13:20:34;5.63;;;1.27;;
18146;SDS011;9199;48.832;9.182;2023-03-31T13:23:06;6.15;;;1.20;;
18146;SDS011;9199;48.832;9.182;2023-03-31T13:25:45;3.80;;;0.90;;
18146;SDS011;9199;48.832;9.182;2023-03-31T13:28:15;6.55;;;1.00;;
18146;SDS011;9199;48.832;9.182;2023-03-31T13:30:58;3.22;;;0.90;;
18146;SDS011;9199;48.832;9.182;2023-03-31T13:33:27;3.88;;;1.00;;
18146;SDS011;9199;48.832;9.182;2023-03-31T13:36:11;4.97;;;0.98;;
18146;SDS011;9199;48.832;9.182;2023-03-31T13:38:51;3.70;;;0.60;;
18146;SDS011;9199;48.832;9.182;2023-03-31T13:41:31;3.17;;;0.57;;
18146;SDS011;9199;48.832;9.182;2023-03-31T13:44:23;3.15;;;0.40;;
18146;SDS011;9199;48.832;9.182;2023-03-31T13:50:14;1.35;;;0.35;;
18146;SDS011;9199;48.832;9.182;2023-03-31T13:52:55;2.23;;;0.40;;
18146;SDS011;9199;48.832;9.182;2023-03-31T13:55:35;1.80;;;0.50;;
18146;SDS011;9199;48.832;9.182;2023-03-31T13:58:22;1.75;;;0.40;;
18146;SDS011;9199;48.832;9.182;2023-03-31T14:01:31;1.75;;;0.38;;
18146;SDS011;9199;48.832;9.182;2023-03-31T14:04:37;4.20;;;0.80;;
18146;SDS011;9199;48.832;9.182;2023-03-31T14:07:17;3.37;;;0.60;;
18146;SDS011;9199;48.832;9.182;2023-03-31T14:09:48;1.52;;;0.40;;
18146;SDS011;9199;48.832;9.182;2023-03-31T14:12:18;2.33;;;0.50;;
18146;SDS011;9199;48.832;9.182;2023-03-31T14:14:49;3.38;;;0.60;;
18146;SDS011;9199;48.832;9.182;2023-03-31T14:17:25;2.75;;;0.63;;
18146;SDS011;9199;48.832;9.182;2023-03-31T14:20:06;3.63;;;0.60;;
18146;SDS011;9199;48.832;9.182;2023-03-31T14:22:46;2.38;;;0.60;;
18146;SDS011;9199;48.832;9.182;2023-03-31T14:25:20;1.75;;;0.70;;
18146;SDS011;9199;48.832;9.182;2023-03-31T14:27:58;2.75;;;0.70;;
18146;SDS011;9199;48.832;9.182;2023-03-31T14:30:41;2.33;;;0.60;;
18146;SDS011;9199;48.832;9.182;2023-03-31T14:33:17;2.33;;;0.60;;
18146;SDS011;9199;48.832;9.182;2023-03-31T14:35:54;1.77;;;0.60;;
18146;SDS011;9199;48.832;9.182;2023-03-31T14:38:25;2.90;;;0.60;;
18146;SDS011;9199;48.832;9.182;2023-03-31T14:40:54;2.15;;;0.70;;
18146;SDS011;9199;48.832;9.182;2023-03-31T14:43:25;2.80;;;0.60;;
18146;SDS011;9199;48.832;9.182;2023-03-31T14:46:00;1.70;;;0.50;;
18146;SDS011;9199;48.832;9.182;2023-03-31T14:48:28;1.92;;;0.60;;
18146;SDS011;9199;48.832;9.182;2023-03-31T14:50:59;1.98;;;0.60;;
18146;SDS011;9199;48.832;9.182;2023-03-31T14:53:27;1.85;;;0.60;;
18146;SDS011;9199;48.832;9.182;2023-03-31T14:55:56;1.30;;;0.50;;
18146;SDS011;9199;48.832;9.182;2023-03-31T14:58:29;1.43;;;0.50;;
18146;SDS011;9199;48.832;9.182;2023-03-31T15:01:00;2.08;;;0.50;;
18146;SDS011;9199;48.832;9.182;2023-03-31T15:03:28;1.63;;;0.50;;
18146;SDS011;9199;48.832;9.182;2023-03-31T15:05:56;2.08;;;0.60;;
18146;SDS011;9199;48.832;9.182;2023-03-31T15:08:24;1.95;;;0.60;;
18146;SDS011;9199;48.832;9.182;2023-03-31T15:10:54;1.67;;;0.47;;
18146;SDS011;9199;48.832;9.182;2023-03-31T15:13:25;2.30;;;0.65;;
18146;SDS011;9199;48.832;9.182;2023-03-31T15:15:57;2.22;;;0.70;;
18146;SDS011;9199;48.832;9.182;2023-03-31T15:18:25;6.38;;;2.53;;
18146;SDS011;9199;48.832;9.182;2023-03-31T15:20:53;3.33;;;0.95;;
18146;SDS011;9199;48.832;9.182;2023-03-31T15:23:20;4.00;;;1.10;;
18146;SDS011;9199;48.832;9.182;2023-03-31T15:25:50;3.00;;;0.90;;
18146;SDS011;9199;48.832;9.182;2023-03-31T15:28:19;2.88;;;0.60;;
18146;SDS011;9199;48.832;9.182;2023-03-31T15:30:48;2.95;;;0.80;;
18146;SDS011;9199;48.832;9.182;2023-03-31T15:33:17;2.15;;;0.70;;
18146;SDS011;9199;48.832;9.182;2023-03-31T15:35:47;3.17;;;0.70;;
18146;SDS011;9199;48.832;9.182;2023-03-31T15:38:14;3.72;;;0.77;;
18146;SDS011;9199;48.832;9.182;2023-03-31T15:40:43;2.78;;;0.60;;